Time;durP1;ratioP1;P1;durP2;ratioP2;P2;SDS_P1;SDS_P2;PMS_P1;PMS_P2;Temp;Humidity;BMP_temperature;BMP_pressure;BME280_temperature;BME280_humidity;BME280_pressure;Samples;Min_cycle;Max_cycle;Signal;HPM_P1;HPM_P2
2022/05/27 00:00:17;;;;;;;3.40;2.30;;;;;;;;;;5015749;28;20241;-72
2022/05/27 00:02:43;;;;;;;6.17;2.50;;;;;;;;;;5016837;28;20285;-72
2022/05/27 00:05:10;;;;;;;4.87;2.53;;;;;;;;;;5012147;28;20183;-72
2022/05/27 00:07:36;;;;;;;2.87;2.23;;;;;;;;;;5011435;28;20218;-72
2022/05/27 00:10:03;;;;;;;3.13;2.40;;;;;;;;;;5012585;28;20241;-72
2022/05/27 00:12:29;;;;;;;3.10;2.30;;;;;;;;;;5017402;28;20301;-72
2022/05/27 00:14:56;;;;;;;5.03;2.73;;;;;;;;;;5021217;28;20264;-72
2022/05/27 00:17:22;;;;;;;3.17;2.10;;;;;;;;;;5012781;28;20187;-72
2022/05/27 00:19:48;;;;;;;5.30;2.57;;;;;;;;;;5014772;28;20226;-72
2022/05/27 00:22:16;;;;;;;5.37;2.50;;;;;;;;;;5020855;28;20187;-72
2022/05/27 00:24:42;;;;;;;5.03;2.70;;;;;;;;;;5024459;28;20266;-72
2022/05/27 00:27:08;;;;;;;3.27;2.40;;;;;;;;;;5020321;28;20277;-72
2022/05/27 00:29:35;;;;;;;5.20;2.50;;;;;;;;;;5015179;28;20301;-72
2022/05/27 00:32:02;;;;;;;3.47;2.37;;;;;;;;;;5014702;28;20225;-72
2022/05/27 00:34:28;;;;;;;4.53;2.40;;;;;;;;;;5012561;28;20240;-72
2022/05/27 00:36:54;;;;;;;6.47;2.60;;;;;;;;;;5015705;28;20200;-72
2022/05/27 00:39:20;;;;;;;3.60;2.40;;;;;;;;;;5017025;28;20217;-72
2022/05/27 00:41:46;;;;;;;3.00;2.50;;;;;;;;;;5012643;28;20186;-72
2022/05/27 00:44:13;;;;;;;4.83;2.50;;;;;;;;;;5016023;28;20183;-72
2022/05/27 00:46:40;;;;;;;3.17;2.00;;;;;;;;;;5014784;28;20195;-72
2022/05/27 00:49:22;;;;;;;3.43;2.23;;;;;;;;;;5011422;28;20270;-72
2022/05/27 00:51:50;;;;;;;5.57;2.30;;;;;;;;;;5016992;28;20428;-72
2022/05/27 00:54:19;;;;;;;3.13;2.20;;;;;;;;;;5019258;28;20213;-72
2022/05/27 00:56:50;;;;;;;4.83;2.70;;;;;;;;;;5023924;28;20587;-72
2022/05/27 00:59:19;;;;;;;4.90;2.63;;;;;;;;;;5019694;28;20217;-72
2022/05/27 01:01:45;;;;;;;4.07;2.43;;;;;;;;;;5012146;28;20210;-72
2022/05/27 01:04:12;;;;;;;3.53;2.20;;;;;;;;;;5018638;28;20178;-72
2022/05/27 01:06:38;;;;;;;5.13;2.50;;;;;;;;;;5019128;28;20273;-72
2022/05/27 01:09:05;;;;;;;3.40;2.60;;;;;;;;;;5022478;28;20214;-72
2022/05/27 01:11:35;;;;;;;3.83;2.40;;;;;;;;;;5020808;28;20212;-72
2022/05/27 01:14:14;;;;;;;2.90;2.40;;;;;;;;;;5025529;28;20666;-72
2022/05/27 01:16:44;;;;;;;3.23;2.30;;;;;;;;;;5023477;28;20190;-72
2022/05/27 01:22:21;;;;;;;3.50;2.63;;;;;;;;;;5011310;28;20194;-72
2022/05/27 01:24:47;;;;;;;3.60;2.40;;;;;;;;;;5007161;28;20202;-72
2022/05/27 01:27:19;;;;;;;4.70;2.30;;;;;;;;;;5024710;28;20565;-72
2022/05/27 01:30:01;;;;;;;3.27;2.40;;;;;;;;;;5025314;28;20256;-71
2022/05/27 01:32:33;;;;;;;2.83;2.40;;;;;;;;;;5018039;28;20273;-72
2022/05/27 01:35:16;;;;;;;3.93;2.60;;;;;;;;;;5027155;28;20194;-72
2022/05/27 01:37:48;;;;;;;3.63;2.60;;;;;;;;;;5026695;28;20211;-72
2022/05/27 01:40:40;;;;;;;3.87;2.13;;;;;;;;;;5027276;28;20209;-72
2022/05/27 01:43:12;;;;;;;3.97;2.30;;;;;;;;;;5018788;28;20195;-72
2022/05/27 01:45:48;;;;;;;5.33;2.50;;;;;;;;;;5015416;28;20439;-72
2022/05/27 01:48:19;;;;;;;4.37;2.80;;;;;;;;;;5021044;28;20194;-72
2022/05/27 01:50:49;;;;;;;5.33;2.87;;;;;;;;;;5016259;28;20260;-72
2022/05/27 01:53:42;;;;;;;4.13;2.60;;;;;;;;;;5016626;28;20226;-72
2022/05/27 01:56:14;;;;;;;3.87;2.50;;;;;;;;;;5022748;28;20278;-72
2022/05/27 01:58:43;;;;;;;3.70;2.60;;;;;;;;;;5025074;28;20249;-72
2022/05/27 02:01:17;;;;;;;3.77;2.67;;;;;;;;;;5027299;28;20717;-73
2022/05/27 02:03:46;;;;;;;4.77;2.50;;;;;;;;;;5021254;28;20193;-72
2022/05/27 02:06:16;;;;;;;3.23;2.30;;;;;;;;;;5024570;28;20634;-72
2022/05/27 02:08:42;;;;;;;4.53;2.50;;;;;;;;;;5026701;28;20194;-72
2022/05/27 02:11:16;;;;;;;4.90;2.33;;;;;;;;;;5022239;28;20267;-73
2022/05/27 02:13:47;;;;;;;6.10;2.70;;;;;;;;;;5020802;28;20208;-73
2022/05/27 02:16:17;;;;;;;4.77;2.40;;;;;;;;;;5021205;28;20186;-73
2022/05/27 02:18:49;;;;;;;4.40;2.40;;;;;;;;;;5025276;28;20206;-72
2022/05/27 02:21:19;;;;;;;3.70;2.40;;;;;;;;;;5019594;28;20248;-72
2022/05/27 02:23:57;;;;;;;4.43;2.73;;;;;;;;;;5026105;28;20256;-73
2022/05/27 02:26:25;;;;;;;2.93;2.50;;;;;;;;;;5023377;28;20174;-72
2022/05/27 02:29:12;;;;;;;4.20;2.50;;;;;;;;;;5023024;28;20624;-72
2022/05/27 02:31:39;;;;;;;4.30;2.37;;;;;;;;;;5027786;28;20212;-73
2022/05/27 02:37:01;;;;;;;3.03;2.50;;;;;;;;;;5021966;28;20655;-73
2022/05/27 02:39:27;;;;;;;3.60;2.60;;;;;;;;;;5021806;28;20222;-72
2022/05/27 02:41:59;;;;;;;4.87;2.77;;;;;;;;;;5023342;28;20183;-72
2022/05/27 02:44:35;;;;;;;3.27;2.50;;;;;;;;;;5014102;28;20183;-73
2022/05/27 02:47:06;;;;;;;7.30;2.93;;;;;;;;;;5013799;28;20607;-72
2022/05/27 02:49:39;;;;;;;6.97;2.70;;;;;;;;;;5013169;28;20207;-72
2022/05/27 02:52:30;;;;;;;4.27;2.73;;;;;;;;;;5030568;28;20240;-72
2022/05/27 02:55:21;;;;;;;2.97;2.50;;;;;;;;;;5018543;28;20604;-72
2022/05/27 02:57:49;;;;;;;3.67;2.53;;;;;;;;;;5013478;28;20182;-72
2022/05/27 03:00:23;;;;;;;3.87;2.77;;;;;;;;;;5012134;28;20601;-72
2022/05/27 03:02:49;;;;;;;4.33;2.70;;;;;;;;;;5010035;28;20226;-73
2022/05/27 03:05:17;;;;;;;5.67;2.83;;;;;;;;;;5013672;28;20193;-73
2022/05/27 03:07:49;;;;;;;2.93;2.60;;;;;;;;;;5016727;28;20190;-73
2022/05/27 03:10:37;;;;;;;3.27;2.43;;;;;;;;;;5011903;28;20219;-73
2022/05/27 03:13:22;;;;;;;3.87;2.73;;;;;;;;;;5012604;28;20689;-72
2022/05/27 03:16:08;;;;;;;4.60;2.63;;;;;;;;;;5015867;28;20225;-72
2022/05/27 03:18:39;;;;;;;5.10;2.70;;;;;;;;;;5014591;28;20235;-73
2022/05/27 03:21:22;;;;;;;6.77;2.73;;;;;;;;;;5013852;28;20199;-73
2022/05/27 03:24:11;;;;;;;5.37;2.93;;;;;;;;;;5014087;28;20195;-72
2022/05/27 03:26:37;;;;;;;4.17;2.80;;;;;;;;;;5017689;28;20251;-72
2022/05/27 03:29:09;;;;;;;5.53;3.00;;;;;;;;;;5014490;28;20215;-72
2022/05/27 03:31:38;;;;;;;4.13;2.83;;;;;;;;;;5012128;28;21166;-72
2022/05/27 03:34:07;;;;;;;4.33;2.97;;;;;;;;;;5012773;28;20793;-73
2022/05/27 03:36:38;;;;;;;4.20;2.90;;;;;;;;;;5018678;28;20218;-72
2022/05/27 03:39:09;;;;;;;3.47;2.90;;;;;;;;;;5013522;28;20215;-73
2022/05/27 03:41:38;;;;;;;3.60;2.70;;;;;;;;;;5018435;28;20571;-73
2022/05/27 03:44:05;;;;;;;4.13;2.70;;;;;;;;;;5013479;28;20209;-72
2022/05/27 03:46:33;;;;;;;3.23;2.70;;;;;;;;;;5023488;28;20628;-72
2022/05/27 03:49:00;;;;;;;3.77;2.70;;;;;;;;;;5018584;28;20191;-73
2022/05/27 03:51:30;;;;;;;3.57;3.10;;;;;;;;;;5017189;28;20190;-72
2022/05/27 03:54:05;;;;;;;3.90;2.80;;;;;;;;;;5019213;28;20651;-73
2022/05/27 03:56:32;;;;;;;4.17;3.03;;;;;;;;;;5008998;28;20264;-72
2022/05/27 03:58:59;;;;;;;5.17;3.03;;;;;;;;;;5008640;28;20222;-72
2022/05/27 04:01:30;;;;;;;3.60;2.53;;;;;;;;;;5009118;28;20610;-73
2022/05/27 04:03:58;;;;;;;3.70;2.83;;;;;;;;;;5012715;28;20190;-73
2022/05/27 04:06:24;;;;;;;3.40;2.77;;;;;;;;;;5010280;28;20677;-73
2022/05/27 04:08:50;;;;;;;4.50;3.43;;;;;;;;;;5011177;28;20671;-73
2022/05/27 04:11:17;;;;;;;6.57;3.70;;;;;;;;;;5009920;28;20207;-73
2022/05/27 04:13:43;;;;;;;5.43;3.80;;;;;;;;;;5009268;28;20187;-73
2022/05/27 04:16:09;;;;;;;6.37;4.10;;;;;;;;;;5013884;28;20625;-73
2022/05/27 04:18:35;;;;;;;7.43;4.43;;;;;;;;;;5011426;28;20246;-73
2022/05/27 04:21:01;;;;;;;6.50;5.00;;;;;;;;;;5013700;28;20313;-73
2022/05/27 04:23:27;;;;;;;5.73;4.97;;;;;;;;;;5017290;28;20267;-73
2022/05/27 04:25:53;;;;;;;7.13;5.53;;;;;;;;;;5024160;28;20563;-73
2022/05/27 04:28:20;;;;;;;5.90;5.30;;;;;;;;;;5004004;28;20193;-73
2022/05/27 04:30:46;;;;;;;5.27;4.70;;;;;;;;;;5016212;28;20212;-73
2022/05/27 04:33:13;;;;;;;5.33;4.60;;;;;;;;;;5019014;28;20714;-73
2022/05/27 04:35:39;;;;;;;4.77;4.07;;;;;;;;;;5015376;28;20195;-73
2022/05/27 04:38:06;;;;;;;5.27;4.50;;;;;;;;;;5017157;28;20182;-73
2022/05/27 04:40:32;;;;;;;5.47;4.70;;;;;;;;;;5015773;28;20301;-72
2022/05/27 04:42:59;;;;;;;5.67;4.80;;;;;;;;;;5018536;28;20274;-74
2022/05/27 04:45:25;;;;;;;6.90;4.50;;;;;;;;;;5013844;28;20190;-73
2022/05/27 04:47:51;;;;;;;6.83;4.57;;;;;;;;;;5013609;28;20718;-73
2022/05/27 04:50:29;;;;;;;6.80;4.57;;;;;;;;;;5020021;28;20214;-73
2022/05/27 04:52:55;;;;;;;4.70;4.30;;;;;;;;;;5014727;28;20183;-73
2022/05/27 04:55:22;;;;;;;7.33;4.17;;;;;;;;;;5020941;28;20737;-73
2022/05/27 04:57:50;;;;;;;6.90;4.33;;;;;;;;;;5019067;28;20951;-73
2022/05/27 05:00:18;;;;;;;4.80;4.00;;;;;;;;;;5017349;28;20223;-73
2022/05/27 05:02:44;;;;;;;4.93;4.27;;;;;;;;;;5017653;28;20327;-73
2022/05/27 05:05:12;;;;;;;5.07;3.83;;;;;;;;;;5016858;28;20711;-73
2022/05/27 05:07:40;;;;;;;5.53;4.20;;;;;;;;;;5023245;28;20191;-72
2022/05/27 05:10:11;;;;;;;5.90;4.07;;;;;;;;;;5018711;28;20546;-73
2022/05/27 05:12:37;;;;;;;5.13;3.93;;;;;;;;;;5017718;28;20175;-73
2022/05/27 05:15:03;;;;;;;4.40;3.97;;;;;;;;;;5017756;28;20178;-73
2022/05/27 05:17:30;;;;;;;7.10;3.87;;;;;;;;;;5015757;28;20523;-75
2022/05/27 05:19:56;;;;;;;6.03;3.70;;;;;;;;;;5017077;28;20344;-75
2022/05/27 05:22:25;;;;;;;5.07;3.87;;;;;;;;;;5019867;28;20269;-74
2022/05/27 05:24:55;;;;;;;5.87;3.53;;;;;;;;;;5017320;28;20269;-76
2022/05/27 05:27:22;;;;;;;6.07;3.80;;;;;;;;;;5004795;28;20194;-75
2022/05/27 05:29:48;;;;;;;5.53;3.97;;;;;;;;;;5016146;28;20211;-74
2022/05/27 05:32:14;;;;;;;6.00;4.00;;;;;;;;;;5018378;28;20298;-75
2022/05/27 05:34:41;;;;;;;4.23;3.83;;;;;;;;;;5018971;28;20219;-75
2022/05/27 05:37:25;;;;;;;5.37;3.57;;;;;;;;;;5022979;28;20605;-74
2022/05/27 05:39:51;;;;;;;5.60;3.90;;;;;;;;;;5020394;28;20249;-75
2022/05/27 05:42:17;;;;;;;4.70;3.80;;;;;;;;;;5017771;28;20665;-76
2022/05/27 05:44:43;;;;;;;7.00;3.80;;;;;;;;;;5018665;28;20599;-76
2022/05/27 05:47:10;;;;;;;6.40;3.87;;;;;;;;;;5013523;28;20183;-77
2022/05/27 05:49:46;;;;;;;4.37;3.70;;;;;;;;;;5020306;28;20626;-76
2022/05/27 05:52:13;;;;;;;5.97;3.60;;;;;;;;;;5024580;28;20222;-76
2022/05/27 05:54:39;;;;;;;4.97;3.47;;;;;;;;;;5020248;28;20194;-77
2022/05/27 05:57:06;;;;;;;3.70;3.30;;;;;;;;;;5016380;28;20183;-76
2022/05/27 05:59:33;;;;;;;4.93;4.00;;;;;;;;;;5021628;28;20268;-76
2022/05/27 06:02:00;;;;;;;4.73;4.00;;;;;;;;;;5018246;28;20225;-76
2022/05/27 06:04:47;;;;;;;7.23;4.10;;;;;;;;;;5022644;28;20241;-76
2022/05/27 06:07:14;;;;;;;4.87;3.40;;;;;;;;;;5026948;28;20685;-76
2022/05/27 06:09:41;;;;;;;5.60;3.70;;;;;;;;;;5023461;28;20213;-76
2022/05/27 06:12:08;;;;;;;4.03;3.23;;;;;;;;;;5018986;28;20233;-76
2022/05/27 06:14:37;;;;;;;4.23;3.80;;;;;;;;;;5016239;28;20746;-76
2022/05/27 06:17:05;;;;;;;4.63;3.80;;;;;;;;;;5014810;28;20233;-76
2022/05/27 06:19:31;;;;;;;4.37;3.97;;;;;;;;;;5013464;28;20301;-76
2022/05/27 06:21:57;;;;;;;3.97;3.57;;;;;;;;;;5016077;28;20186;-77
2022/05/27 06:24:23;;;;;;;4.87;3.70;;;;;;;;;;5019289;28;20973;-76
2022/05/27 06:26:49;;;;;;;3.97;3.53;;;;;;;;;;5014657;28;20202;-76
2022/05/27 06:35:06;;;;;;;6.43;4.20;;;;;;;;;;5022836;28;20237;-76
2022/05/27 06:37:33;;;;;;;5.77;4.00;;;;;;;;;;5017948;28;20269;-76
2022/05/27 06:39:59;;;;;;;5.17;3.83;;;;;;;;;;5015004;28;20695;-76
2022/05/27 06:42:27;;;;;;;4.13;3.60;;;;;;;;;;5018159;28;20228;-77
2022/05/27 06:44:55;;;;;;;5.03;3.80;;;;;;;;;;5023781;28;20190;-76
2022/05/27 06:47:21;;;;;;;5.00;3.57;;;;;;;;;;5018016;28;20187;-76
2022/05/27 06:49:48;;;;;;;5.33;3.90;;;;;;;;;;5014578;28;20225;-76
2022/05/27 06:52:15;;;;;;;6.40;3.80;;;;;;;;;;5024383;28;20194;-76
2022/05/27 06:54:42;;;;;;;4.23;3.83;;;;;;;;;;5024339;28;20297;-76
2022/05/27 06:57:08;;;;;;;8.67;3.57;;;;;;;;;;5020303;28;20293;-77
2022/05/27 06:59:35;;;;;;;5.43;4.10;;;;;;;;;;5019774;28;20217;-77
2022/05/27 07:02:01;;;;;;;4.30;3.90;;;;;;;;;;5016325;28;21620;-77
2022/05/27 07:04:28;;;;;;;4.47;3.50;;;;;;;;;;5013424;28;20197;-77
2022/05/27 07:06:54;;;;;;;7.90;3.80;;;;;;;;;;5023285;28;21067;-76
2022/05/27 07:09:22;;;;;;;7.50;4.10;;;;;;;;;;5014294;28;20210;-76
2022/05/27 07:11:50;;;;;;;5.03;4.00;;;;;;;;;;5014711;28;20332;-77
2022/05/27 07:14:17;;;;;;;4.50;4.10;;;;;;;;;;5018542;28;20862;-77
2022/05/27 07:16:44;;;;;;;6.03;4.07;;;;;;;;;;5018498;28;20182;-77
2022/05/27 07:19:11;;;;;;;6.87;3.80;;;;;;;;;;5012765;28;20237;-77
2022/05/27 07:21:41;;;;;;;5.60;3.90;;;;;;;;;;5017619;28;20211;-77
2022/05/27 07:24:33;;;;;;;4.20;3.80;;;;;;;;;;5004250;28;20285;-76
2022/05/27 07:26:59;;;;;;;4.90;3.93;;;;;;;;;;5019058;28;20222;-77
2022/05/27 07:29:26;;;;;;;6.03;3.93;;;;;;;;;;5015891;28;20207;-77
2022/05/27 07:31:52;;;;;;;4.77;4.00;;;;;;;;;;5025629;28;20743;-77
2022/05/27 07:34:19;;;;;;;4.37;3.97;;;;;;;;;;5015681;28;20195;-76
2022/05/27 07:36:45;;;;;;;4.23;3.73;;;;;;;;;;5021115;28;20191;-76
2022/05/27 07:39:11;;;;;;;4.20;3.73;;;;;;;;;;5012317;28;20333;-76
2022/05/27 07:41:38;;;;;;;6.33;3.73;;;;;;;;;;5015676;28;20214;-76
2022/05/27 07:44:05;;;;;;;6.50;4.10;;;;;;;;;;5017250;28;21013;-75
2022/05/27 07:46:33;;;;;;;5.40;3.80;;;;;;;;;;5014685;28;20540;-76
2022/05/27 07:49:00;;;;;;;5.50;4.23;;;;;;;;;;5019262;28;20652;-77
2022/05/27 07:51:26;;;;;;;4.73;3.90;;;;;;;;;;5023662;28;20269;-76
2022/05/27 07:53:52;;;;;;;4.10;3.70;;;;;;;;;;5021979;28;20289;-75
2022/05/27 07:56:18;;;;;;;4.00;3.63;;;;;;;;;;5019255;28;20205;-76
2022/05/27 07:58:44;;;;;;;4.40;3.80;;;;;;;;;;5014465;28;20253;-74
2022/05/27 08:01:11;;;;;;;4.53;4.10;;;;;;;;;;5012175;28;20585;-76
2022/05/27 08:03:39;;;;;;;5.03;3.80;;;;;;;;;;5016263;28;20237;-75
2022/05/27 08:06:05;;;;;;;6.33;3.63;;;;;;;;;;5020482;28;20206;-76
2022/05/27 08:08:31;;;;;;;4.57;3.70;;;;;;;;;;5013301;28;20793;-76
2022/05/27 08:10:58;;;;;;;4.87;3.53;;;;;;;;;;5019112;28;20206;-75
2022/05/27 08:13:25;;;;;;;4.00;3.60;;;;;;;;;;5011935;28;20289;-75
2022/05/27 08:15:55;;;;;;;6.70;3.70;;;;;;;;;;5019718;28;20187;-76
2022/05/27 08:18:21;;;;;;;5.60;3.67;;;;;;;;;;5018086;28;20230;-76
2022/05/27 08:20:50;;;;;;;5.30;3.80;;;;;;;;;;5015747;28;20210;-76
2022/05/27 08:23:16;;;;;;;7.43;3.60;;;;;;;;;;5015355;28;20187;-76
2022/05/27 08:25:43;;;;;;;8.83;3.43;;;;;;;;;;5013427;28;20190;-76
2022/05/27 08:28:09;;;;;;;4.97;3.40;;;;;;;;;;5012126;28;20221;-76
2022/05/27 08:30:37;;;;;;;5.37;3.50;;;;;;;;;;5011043;28;20293;-76
2022/05/27 08:33:03;;;;;;;5.77;3.30;;;;;;;;;;5011629;28;20262;-76
2022/05/27 08:38:22;;;;;;;4.50;3.17;;;;;;;;;;5020884;28;20186;-76
2022/05/27 08:41:00;;;;;;;5.37;3.23;;;;;;;;;;5014068;28;20894;-76
2022/05/27 08:43:37;;;;;;;6.30;3.10;;;;;;;;;;5022049;28;20178;-76
2022/05/27 08:46:09;;;;;;;5.20;3.40;;;;;;;;;;5024834;28;20182;-76
2022/05/27 08:48:38;;;;;;;5.40;3.23;;;;;;;;;;5020865;28;20187;-76
2022/05/27 08:51:17;;;;;;;3.87;3.20;;;;;;;;;;5024758;28;20213;-76
2022/05/27 08:53:45;;;;;;;6.47;3.20;;;;;;;;;;5019271;28;21732;-76
2022/05/27 08:59:40;;;;;;;4.47;3.30;;;;;;;;;;5011778;28;20228;-76
2022/05/27 09:02:18;;;;;;;6.00;3.27;;;;;;;;;;5024425;28;20269;-76
2022/05/27 09:04:50;;;;;;;8.40;3.60;;;;;;;;;;5014315;28;26582;-76
2022/05/27 09:07:34;;;;;;;5.67;2.77;;;;;;;;;;5011288;28;20309;-76
2022/05/27 09:10:04;;;;;;;4.50;2.60;;;;;;;;;;5018592;28;20319;-76
2022/05/27 09:12:57;;;;;;;6.13;3.00;;;;;;;;;;5018508;28;20183;-76
2022/05/27 09:15:32;;;;;;;3.87;2.70;;;;;;;;;;5023983;28;20189;-76
2022/05/27 09:17:59;;;;;;;3.00;2.67;;;;;;;;;;5024205;28;20236;-76
2022/05/27 09:20:34;;;;;;;3.27;2.53;;;;;;;;;;5017928;28;20211;-76
2022/05/27 09:23:08;;;;;;;4.70;2.77;;;;;;;;;;5020736;28;20214;-76
2022/05/27 09:25:34;;;;;;;3.50;3.20;;;;;;;;;;5020771;28;20194;-76
2022/05/27 09:28:27;;;;;;;3.40;3.10;;;;;;;;;;5021348;28;20195;-76
2022/05/27 09:30:55;;;;;;;3.30;2.73;;;;;;;;;;5012275;28;20710;-76
2022/05/27 09:33:23;;;;;;;3.63;2.57;;;;;;;;;;5018571;28;20187;-76
2022/05/27 09:35:52;;;;;;;4.17;2.53;;;;;;;;;;5023749;28;20195;-76
2022/05/27 09:38:23;;;;;;;5.33;2.47;;;;;;;;;;5022000;28;20240;-76
2022/05/27 09:40:57;;;;;;;3.60;2.40;;;;;;;;;;5015852;28;20221;-76
2022/05/27 09:43:45;;;;;;;2.77;2.30;;;;;;;;;;5018383;28;20260;-76
2022/05/27 09:46:15;;;;;;;4.37;2.10;;;;;;;;;;5013833;28;20179;-76
2022/05/27 09:48:44;;;;;;;2.30;2.10;;;;;;;;;;5022853;28;20232;-76
2022/05/27 09:51:12;;;;;;;3.70;2.10;;;;;;;;;;5018336;28;20241;-76
2022/05/27 09:53:43;;;;;;;4.40;2.20;;;;;;;;;;5022806;28;20229;-76
2022/05/27 09:56:11;;;;;;;4.60;2.27;;;;;;;;;;5018157;28;20721;-76
2022/05/27 09:58:40;;;;;;;3.37;2.10;;;;;;;;;;5018314;28;20250;-76
2022/05/27 10:01:25;;;;;;;4.20;3.10;;;;;;;;;;5017300;28;20240;-76
2022/05/27 10:04:01;;;;;;;3.70;3.00;;;;;;;;;;5015061;28;20187;-76
2022/05/27 10:06:28;;;;;;;2.57;2.37;;;;;;;;;;5023874;28;20188;-76
2022/05/27 10:08:56;;;;;;;2.60;2.40;;;;;;;;;;5012583;28;20186;-76
2022/05/27 10:11:27;;;;;;;2.60;2.40;;;;;;;;;;5017218;28;20225;-76
2022/05/27 10:14:12;;;;;;;2.50;2.20;;;;;;;;;;5013668;28;20256;-76
2022/05/27 10:16:40;;;;;;;6.43;2.87;;;;;;;;;;5015621;28;20182;-76
2022/05/27 10:19:06;;;;;;;4.17;2.83;;;;;;;;;;5016793;28;20293;-76
2022/05/27 10:21:34;;;;;;;3.87;3.00;;;;;;;;;;5016637;28;20182;-76
2022/05/27 10:24:14;;;;;;;2.80;2.60;;;;;;;;;;5021190;28;20190;-78
2022/05/27 10:26:41;;;;;;;3.47;2.63;;;;;;;;;;5020117;28;20692;-78
2022/05/27 10:29:14;;;;;;;4.27;2.60;;;;;;;;;;5013884;28;20194;-75
2022/05/27 10:31:49;;;;;;;3.57;2.50;;;;;;;;;;5022036;28;20575;-75
2022/05/27 10:34:34;;;;;;;5.90;2.20;;;;;;;;;;5013984;28;20669;-75
2022/05/27 10:37:21;;;;;;;2.60;2.40;;;;;;;;;;5011389;28;20187;-75
2022/05/27 10:39:57;;;;;;;3.60;2.60;;;;;;;;;;5020041;28;20230;-76
2022/05/27 10:42:31;;;;;;;2.40;2.20;;;;;;;;;;5014758;28;20236;-74
2022/05/27 10:44:57;;;;;;;2.80;2.50;;;;;;;;;;5019521;28;20178;-74
2022/05/27 10:47:44;;;;;;;6.03;2.50;;;;;;;;;;5017836;28;20720;-74
2022/05/27 10:50:24;;;;;;;2.60;2.40;;;;;;;;;;5016000;28;20719;-78
2022/05/27 10:53:03;;;;;;;2.83;2.30;;;;;;;;;;5012103;28;20214;-75
2022/05/27 10:55:50;;;;;;;3.63;2.10;;;;;;;;;;5014486;28;20248;-75
2022/05/27 11:04:20;;;;;;;2.70;2.50;;;;;;;;;;5028728;28;20271;-75
2022/05/27 11:06:55;;;;;;;2.90;2.60;;;;;;;;;;5020263;28;20503;-75
2022/05/27 11:09:40;;;;;;;3.33;2.70;;;;;;;;;;5027661;28;20271;-74
2022/05/27 11:12:22;;;;;;;2.60;2.37;;;;;;;;;;5020889;28;20241;-74
2022/05/27 11:17:33;;;;;;;2.13;2.00;;;;;;;;;;5021458;28;20187;-74
2022/05/27 11:20:05;;;;;;;2.90;2.00;;;;;;;;;;5014646;28;20260;-74
2022/05/27 11:22:35;;;;;;;3.60;2.30;;;;;;;;;;5014595;28;20289;-74
2022/05/27 11:25:06;;;;;;;3.83;2.17;;;;;;;;;;5019348;28;20183;-74
2022/05/27 11:27:36;;;;;;;2.67;2.40;;;;;;;;;;5016906;28;20264;-74
2022/05/27 11:30:06;;;;;;;2.17;2.00;;;;;;;;;;5025214;28;20219;-75
2022/05/27 11:32:51;;;;;;;2.23;2.03;;;;;;;;;;5020818;28;20231;-75
2022/05/27 11:35:26;;;;;;;1.97;1.87;;;;;;;;;;5019071;28;20211;-75
2022/05/27 11:37:55;;;;;;;2.37;1.70;;;;;;;;;;5017939;28;20185;-74
2022/05/27 11:40:39;;;;;;;3.93;1.57;;;;;;;;;;5024833;28;20218;-75
2022/05/27 11:43:27;;;;;;;2.27;1.93;;;;;;;;;;5018501;28;20193;-74
2022/05/27 11:46:11;;;;;;;2.50;1.70;;;;;;;;;;5016136;28;20190;-74
2022/05/27 11:48:43;;;;;;;1.93;1.57;;;;;;;;;;5024211;28;20629;-74
2022/05/27 11:51:13;;;;;;;4.10;1.80;;;;;;;;;;5019382;28;20589;-74
2022/05/27 11:53:45;;;;;;;3.53;1.50;;;;;;;;;;5022452;28;20673;-74
2022/05/27 11:56:16;;;;;;;2.50;1.60;;;;;;;;;;5017133;28;20186;-74
2022/05/27 11:58:42;;;;;;;5.10;1.60;;;;;;;;;;5022233;28;20213;-74
2022/05/27 12:01:12;;;;;;;1.60;1.50;;;;;;;;;;5021713;28;20218;-76
2022/05/27 12:03:41;;;;;;;6.50;1.70;;;;;;;;;;5016359;28;21071;-74
2022/05/27 12:06:10;;;;;;;2.43;1.60;;;;;;;;;;5020873;28;20182;-74
2022/05/27 12:08:39;;;;;;;1.40;1.30;;;;;;;;;;5022316;28;20647;-74
2022/05/27 12:11:20;;;;;;;6.23;1.60;;;;;;;;;;5016118;28;20207;-78
2022/05/27 12:13:49;;;;;;;2.00;1.70;;;;;;;;;;5026107;28;20190;-78
2022/05/27 12:16:18;;;;;;;2.17;1.30;;;;;;;;;;5025344;28;20245;-77
2022/05/27 12:18:53;;;;;;;3.03;1.30;;;;;;;;;;5020885;28;20255;-78
2022/05/27 12:21:21;;;;;;;2.97;1.50;;;;;;;;;;5019461;28;20190;-79
2022/05/27 12:23:53;;;;;;;1.40;1.30;;;;;;;;;;5019399;28;20236;-79
2022/05/27 12:26:27;;;;;;;1.67;1.30;;;;;;;;;;5026025;28;20179;-78
2022/05/27 12:28:56;;;;;;;1.70;1.50;;;;;;;;;;5017434;28;20221;-79
2022/05/27 12:31:24;;;;;;;1.90;1.37;;;;;;;;;;5023000;28;20222;-78
2022/05/27 12:33:50;;;;;;;2.87;1.37;;;;;;;;;;5022057;28;20285;-79
2022/05/27 12:36:23;;;;;;;2.70;1.40;;;;;;;;;;5019528;28;20187;-78
2022/05/27 12:38:52;;;;;;;2.83;1.60;;;;;;;;;;5018813;28;20285;-78
2022/05/27 12:41:38;;;;;;;1.40;1.30;;;;;;;;;;5047224;28;20166;-78
2022/05/27 12:44:20;;;;;;;1.50;1.37;;;;;;;;;;5017743;28;20195;-75
2022/05/27 12:46:51;;;;;;;2.60;1.40;;;;;;;;;;5026385;28;20185;-74
2022/05/27 12:49:23;;;;;;;1.73;1.30;;;;;;;;;;5022385;28;20202;-76
2022/05/27 12:51:49;;;;;;;1.30;1.20;;;;;;;;;;5007301;28;20696;-76
2022/05/27 12:54:39;;;;;;;0.97;0.90;;;;;;;;;;5020714;28;20367;-76
2022/05/27 13:03:33;;;;;;;1.23;1.20;;;;;;;;;;5024793;28;20236;-76
2022/05/27 13:06:14;;;;;;;1.10;1.00;;;;;;;;;;5024368;28;20241;-77
2022/05/27 13:08:52;;;;;;;1.37;1.10;;;;;;;;;;5020404;28;20192;-77
2022/05/27 13:11:22;;;;;;;1.07;1.00;;;;;;;;;;5024399;28;20189;-76
2022/05/27 13:13:52;;;;;;;4.07;1.20;;;;;;;;;;5020558;28;20190;-76
2022/05/27 13:16:26;;;;;;;2.00;0.90;;;;;;;;;;5021758;28;20597;-76
2022/05/27 13:18:58;;;;;;;1.43;0.93;;;;;;;;;;5003987;28;20834;-76
2022/05/27 13:21:28;;;;;;;0.93;0.93;;;;;;;;;;5011900;28;20246;-76
2022/05/27 13:23:54;;;;;;;1.57;1.10;;;;;;;;;;5024754;28;20184;-76
2022/05/27 13:26:39;;;;;;;1.43;1.17;;;;;;;;;;5024284;28;20190;-76
2022/05/27 13:29:18;;;;;;;1.10;1.03;;;;;;;;;;5013538;28;20278;-76
2022/05/27 13:31:45;;;;;;;3.73;1.10;;;;;;;;;;5011323;28;20224;-77
2022/05/27 13:34:16;;;;;;;2.83;1.00;;;;;;;;;;5008772;28;21123;-74
2022/05/27 13:36:51;;;;;;;1.10;1.00;;;;;;;;;;5007463;28;20580;-75
2022/05/27 13:39:20;;;;;;;2.60;0.90;;;;;;;;;;5015104;28;20213;-80
2022/05/27 13:41:48;;;;;;;0.93;0.83;;;;;;;;;;5008541;28;20183;-77
2022/05/27 13:44:17;;;;;;;0.80;0.80;;;;;;;;;;5017587;28;20241;-80
2022/05/27 13:46:49;;;;;;;1.27;0.80;;;;;;;;;;5025074;28;20182;-77
2022/05/27 13:49:23;;;;;;;1.83;0.90;;;;;;;;;;5023088;28;20842;-76
2022/05/27 13:51:50;;;;;;;2.77;1.00;;;;;;;;;;5016242;28;20256;-76
2022/05/27 13:54:20;;;;;;;2.30;1.00;;;;;;;;;;5025621;28;20189;-76
2022/05/27 13:56:57;;;;;;;0.80;0.70;;;;;;;;;;5019480;28;20195;-76
2022/05/27 13:59:29;;;;;;;1.23;0.70;;;;;;;;;;5016983;28;20254;-76
2022/05/27 14:01:59;;;;;;;1.33;0.70;;;;;;;;;;5011455;28;20203;-77
2022/05/27 14:04:44;;;;;;;4.87;1.03;;;;;;;;;;5021093;28;20192;-72
2022/05/27 14:07:21;;;;;;;1.17;0.80;;;;;;;;;;5012561;28;20278;-74
2022/05/27 14:09:50;;;;;;;0.80;0.70;;;;;;;;;;5016076;28;20309;-76
2022/05/27 14:12:18;;;;;;;1.00;0.90;;;;;;;;;;5027076;28;20186;-79
2022/05/27 14:14:46;;;;;;;1.03;0.80;;;;;;;;;;5023269;28;20197;-75
2022/05/27 14:17:17;;;;;;;0.83;0.83;;;;;;;;;;5025463;28;20264;-74
2022/05/27 14:19:44;;;;;;;1.20;0.90;;;;;;;;;;5021068;28;20222;-72
2022/05/27 14:24:55;;;;;;;2.40;0.90;;;;;;;;;;5019575;28;20299;-73
2022/05/27 14:27:25;;;;;;;2.43;0.97;;;;;;;;;;5010275;28;20179;-73
2022/05/27 14:29:55;;;;;;;1.23;0.97;;;;;;;;;;5024205;28;20206;-73
2022/05/27 14:32:23;;;;;;;6.23;1.13;;;;;;;;;;5007147;28;20188;-73
2022/05/27 14:34:56;;;;;;;2.07;1.00;;;;;;;;;;5017036;28;20188;-73
2022/05/27 14:37:22;;;;;;;0.80;0.80;;;;;;;;;;5016435;28;20199;-73
2022/05/27 14:39:49;;;;;;;0.80;0.80;;;;;;;;;;5031155;28;20221;-73
2022/05/27 14:42:17;;;;;;;1.40;0.80;;;;;;;;;;5025517;28;20194;-73
2022/05/27 14:44:49;;;;;;;2.30;0.90;;;;;;;;;;5029079;28;20207;-74
2022/05/27 14:47:28;;;;;;;1.90;0.90;;;;;;;;;;5020961;28;20206;-73
2022/05/27 14:49:56;;;;;;;0.87;0.80;;;;;;;;;;5010198;28;20211;-73
2022/05/27 14:52:29;;;;;;;1.53;0.77;;;;;;;;;;5005910;28;20199;-73
2022/05/27 14:55:00;;;;;;;0.70;0.70;;;;;;;;;;5015553;28;20198;-73
2022/05/27 14:57:29;;;;;;;0.90;0.80;;;;;;;;;;5023839;28;20195;-73
2022/05/27 15:00:25;;;;;;;0.70;0.70;;;;;;;;;;5017259;28;20218;-73
2022/05/27 15:02:53;;;;;;;1.43;0.80;;;;;;;;;;5023482;28;20214;-73
2022/05/27 15:05:28;;;;;;;1.57;0.90;;;;;;;;;;5023959;28;20204;-79
2022/05/27 15:08:03;;;;;;;0.70;0.70;;;;;;;;;;5024383;28;20202;-73
2022/05/27 15:10:39;;;;;;;0.80;0.70;;;;;;;;;;5014107;28;20700;-73
2022/05/27 15:13:26;;;;;;;0.70;0.70;;;;;;;;;;5022962;28;20200;-73
2022/05/27 15:15:52;;;;;;;1.07;0.87;;;;;;;;;;5021210;28;20190;-73
2022/05/27 15:18:21;;;;;;;1.40;0.90;;;;;;;;;;5023451;28;20659;-74
2022/05/27 15:21:04;;;;;;;0.97;0.87;;;;;;;;;;5022278;28;20209;-75
2022/05/27 15:23:33;;;;;;;1.60;1.00;;;;;;;;;;5022209;28;20662;-75
2022/05/27 15:34:23;;;;;;;5.23;1.33;;;;;;;;;;5010651;28;20253;-75
2022/05/27 15:36:50;;;;;;;1.20;1.10;;;;;;;;;;5014588;28;21254;-73
2022/05/27 15:39:16;;;;;;;1.80;1.10;;;;;;;;;;5005413;28;20729;-75
2022/05/27 15:41:42;;;;;;;1.43;1.10;;;;;;;;;;5004313;28;20218;-77
2022/05/27 15:44:08;;;;;;;1.40;1.20;;;;;;;;;;5023740;28;20191;-75
2022/05/27 15:46:35;;;;;;;2.67;1.10;;;;;;;;;;5019800;28;20632;-75
2022/05/27 15:49:01;;;;;;;1.27;1.00;;;;;;;;;;5023426;28;20198;-74